Time;durP1;ratioP1;P1;durP2;ratioP2;P2;SDS_P1;SDS_P2;PMS_P1;PMS_P2;Temp;Humidity;BMP_temperature;BMP_pressure;BME280_temperature;BME280_humidity;BME280_pressure;Samples;Min_cycle;Max_cycle;Signal;HPM_P1;HPM_P2
2022/01/31 00:00:49;;;;;;;69.05;57.70;;;;;;;;;;5053425;28;20078;-49
2022/01/31 00:03:15;;;;;;;59.45;51.53;;;;;;;;;;5053781;28;20059;-50
2022/01/31 00:05:40;;;;;;;73.90;58.15;;;;;;;;;;5052627;28;20055;-45
2022/01/31 00:08:06;;;;;;;60.45;52.58;;;;;;;;;;5050883;28;20505;-45
2022/01/31 00:10:31;;;;;;;57.03;44.65;;;;;;;;;;5051597;28;20017;-44
2022/01/31 00:13:07;;;;;;;45.72;40.83;;;;;;;;;;5050578;28;20040;-48
2022/01/31 00:15:38;;;;;;;58.40;47.38;;;;;;;;;;5052048;28;20063;-44
2022/01/31 00:18:03;;;;;;;54.10;48.22;;;;;;;;;;5052123;28;20392;-48
2022/01/31 00:20:28;;;;;;;57.90;44.83;;;;;;;;;;5054122;28;20025;-45
2022/01/31 00:22:54;;;;;;;47.58;40.33;;;;;;;;;;5053905;28;20548;-45
2022/01/31 00:25:19;;;;;;;43.95;39.30;;;;;;;;;;5051163;28;20021;-48
2022/01/31 00:27:44;;;;;;;53.03;43.25;;;;;;;;;;5051169;28;20024;-44
2022/01/31 00:30:10;;;;;;;44.53;39.00;;;;;;;;;;5053046;28;20177;-48
2022/01/31 00:32:36;;;;;;;47.65;41.08;;;;;;;;;;5050435;28;20025;-44
2022/01/31 00:35:01;;;;;;;51.53;38.08;;;;;;;;;;5049022;28;20025;-46
2022/01/31 00:37:26;;;;;;;33.72;30.27;;;;;;;;;;5052869;28;20025;-45
2022/01/31 00:39:52;;;;;;;44.30;31.58;;;;;;;;;;5053141;28;20133;-46
2022/01/31 00:42:19;;;;;;;39.60;31.95;;;;;;;;;;5057053;28;20465;-44
2022/01/31 00:47:25;;;;;;;32.85;23.58;;;;;;;;;;5055124;28;20028;-48
2022/01/31 00:50:05;;;;;;;34.90;28.38;;;;;;;;;;5055998;28;20086;-44
2022/01/31 00:52:31;;;;;;;40.55;29.40;;;;;;;;;;5052418;28;20781;-45
2022/01/31 00:54:56;;;;;;;40.30;25.77;;;;;;;;;;5057508;28;20046;-48
2022/01/31 00:57:21;;;;;;;35.20;26.58;;;;;;;;;;5055374;28;20041;-45
2022/01/31 00:59:50;;;;;;;39.97;30.63;;;;;;;;;;5055124;28;20044;-46
2022/01/31 01:02:16;;;;;;;37.30;31.23;;;;;;;;;;5058222;28;20028;-48
2022/01/31 01:04:41;;;;;;;49.47;36.45;;;;;;;;;;5055674;28;20448;-46
2022/01/31 01:07:07;;;;;;;41.13;35.42;;;;;;;;;;5055689;28;20032;-47
2022/01/31 01:09:32;;;;;;;42.35;37.78;;;;;;;;;;5059672;28;20028;-45
2022/01/31 01:12:01;;;;;;;41.53;35.35;;;;;;;;;;5056041;28;20017;-45
2022/01/31 01:14:26;;;;;;;43.85;34.75;;;;;;;;;;5055921;28;20424;-45
2022/01/31 01:16:51;;;;;;;30.42;27.27;;;;;;;;;;5055878;28;20482;-44
2022/01/31 01:19:17;;;;;;;41.40;33.40;;;;;;;;;;5061607;28;20496;-44
2022/01/31 01:21:42;;;;;;;42.92;33.22;;;;;;;;;;5054769;28;20443;-45
2022/01/31 01:24:07;;;;;;;35.42;24.52;;;;;;;;;;5057506;28;20103;-47
2022/01/31 01:26:33;;;;;;;31.80;25.20;;;;;;;;;;5056623;28;20020;-43
2022/01/31 01:28:58;;;;;;;33.58;25.90;;;;;;;;;;5058189;28;20386;-44
2022/01/31 01:31:23;;;;;;;39.40;30.20;;;;;;;;;;5056053;28;20024;-42
2022/01/31 01:33:49;;;;;;;30.65;25.90;;;;;;;;;;5054728;28;20507;-47
2022/01/31 01:36:14;;;;;;;32.55;24.27;;;;;;;;;;5056289;28;20033;-43
2022/01/31 01:38:39;;;;;;;28.75;24.60;;;;;;;;;;5055778;28;20466;-44
2022/01/31 01:41:05;;;;;;;28.65;24.23;;;;;;;;;;5057076;28;20145;-45
2022/01/31 01:43:30;;;;;;;30.90;22.73;;;;;;;;;;5055789;28;20193;-46
2022/01/31 01:45:56;;;;;;;27.40;21.48;;;;;;;;;;5055145;28;20115;-47
2022/01/31 01:48:23;;;;;;;32.17;22.35;;;;;;;;;;5055238;28;20025;-45
2022/01/31 01:50:49;;;;;;;22.40;17.45;;;;;;;;;;5054492;28;20405;-44
2022/01/31 01:53:14;;;;;;;29.17;19.92;;;;;;;;;;5049278;28;20422;-43
2022/01/31 01:55:40;;;;;;;24.55;19.27;;;;;;;;;;5055847;28;20112;-46
2022/01/31 01:58:13;;;;;;;23.92;18.73;;;;;;;;;;5054626;28;20106;-45
2022/01/31 02:00:51;;;;;;;24.85;16.50;;;;;;;;;;5050268;28;20017;-46
2022/01/31 02:03:17;;;;;;;17.50;13.48;;;;;;;;;;5053121;28;20099;-48
2022/01/31 02:05:43;;;;;;;20.88;14.85;;;;;;;;;;5055353;28;20477;-43
2022/01/31 02:08:10;;;;;;;25.08;14.80;;;;;;;;;;5056791;28;20045;-44
2022/01/31 02:10:36;;;;;;;14.25;11.93;;;;;;;;;;5057168;28;20017;-47
2022/01/31 02:13:05;;;;;;;13.30;10.90;;;;;;;;;;5055292;28;20021;-42
2022/01/31 02:15:30;;;;;;;18.58;12.35;;;;;;;;;;5057455;28;20496;-47
2022/01/31 02:17:56;;;;;;;13.85;10.10;;;;;;;;;;5053152;28;20024;-47
2022/01/31 02:20:21;;;;;;;25.75;12.50;;;;;;;;;;5055517;28;20024;-45
2022/01/31 02:22:47;;;;;;;14.27;12.55;;;;;;;;;;5055169;28;20497;-46
2022/01/31 02:25:13;;;;;;;16.92;11.40;;;;;;;;;;5052524;28;20432;-43
2022/01/31 02:27:39;;;;;;;11.90;9.85;;;;;;;;;;5054334;28;20590;-43
2022/01/31 02:30:09;;;;;;;13.25;9.70;;;;;;;;;;5054270;28;20089;-47
2022/01/31 02:32:35;;;;;;;14.73;10.50;;;;;;;;;;5053793;28;20104;-46
2022/01/31 02:35:00;;;;;;;16.48;9.73;;;;;;;;;;5053954;28;20423;-47
2022/01/31 02:37:26;;;;;;;11.15;8.18;;;;;;;;;;5058511;28;20496;-46
2022/01/31 02:39:51;;;;;;;11.52;7.10;;;;;;;;;;5054804;28;20021;-45
2022/01/31 02:42:16;;;;;;;13.20;7.47;;;;;;;;;;5052373;28;20079;-46
2022/01/31 02:44:42;;;;;;;13.05;7.28;;;;;;;;;;5056310;28;20029;-44
2022/01/31 02:47:16;;;;;;;13.23;8.63;;;;;;;;;;5052960;28;20120;-44
2022/01/31 02:52:24;;;;;;;11.43;10.23;;;;;;;;;;5054077;28;20385;-47
2022/01/31 02:54:49;;;;;;;11.45;9.95;;;;;;;;;;5054338;28;20040;-43
2022/01/31 02:57:14;;;;;;;14.38;8.93;;;;;;;;;;5056980;28;20516;-44
2022/01/31 02:59:40;;;;;;;15.05;9.88;;;;;;;;;;5054910;28;20075;-44
2022/01/31 03:02:06;;;;;;;10.60;7.30;;;;;;;;;;5053065;28;20021;-44
2022/01/31 03:04:31;;;;;;;15.00;8.32;;;;;;;;;;5054163;28;20391;-43
2022/01/31 03:06:57;;;;;;;11.10;7.82;;;;;;;;;;5057211;28;20013;-49
2022/01/31 03:09:22;;;;;;;15.10;8.65;;;;;;;;;;5054962;28;20043;-48
2022/01/31 03:11:47;;;;;;;12.73;9.82;;;;;;;;;;5053040;28;20021;-45
2022/01/31 03:14:16;;;;;;;9.88;8.48;;;;;;;;;;5050012;28;20433;-46
2022/01/31 03:16:47;;;;;;;12.00;7.60;;;;;;;;;;5051645;28;20029;-45
2022/01/31 03:19:14;;;;;;;13.80;9.38;;;;;;;;;;5056321;28;20039;-44
2022/01/31 03:21:39;;;;;;;16.83;9.35;;;;;;;;;;5056306;28;20055;-48
2022/01/31 03:24:05;;;;;;;14.57;10.25;;;;;;;;;;5055720;28;20641;-44
2022/01/31 03:26:31;;;;;;;13.55;10.68;;;;;;;;;;5051620;28;20134;-45
2022/01/31 03:28:56;;;;;;;22.55;8.98;;;;;;;;;;5056502;28;20413;-43
2022/01/31 03:31:22;;;;;;;11.55;8.90;;;;;;;;;;5050950;28;20024;-45
2022/01/31 03:33:50;;;;;;;21.35;8.45;;;;;;;;;;5052461;28;20090;-42
2022/01/31 03:36:16;;;;;;;14.20;8.90;;;;;;;;;;5052971;28;20386;-43
2022/01/31 03:38:41;;;;;;;16.30;9.65;;;;;;;;;;5053406;28;20025;-44
2022/01/31 03:41:11;;;;;;;11.80;8.55;;;;;;;;;;5054155;28;20097;-47
2022/01/31 03:43:36;;;;;;;16.80;9.45;;;;;;;;;;5056526;28;20020;-46
2022/01/31 03:46:02;;;;;;;10.75;8.95;;;;;;;;;;5052719;28;20047;-47
2022/01/31 03:48:28;;;;;;;16.38;9.38;;;;;;;;;;5053096;28;20179;-47
2022/01/31 03:50:55;;;;;;;13.38;8.90;;;;;;;;;;5050776;28;20024;-44
2022/01/31 03:53:20;;;;;;;15.70;10.20;;;;;;;;;;5053117;28;20123;-47
2022/01/31 03:55:46;;;;;;;22.83;12.55;;;;;;;;;;5055039;28;20103;-43
2022/01/31 03:58:11;;;;;;;18.42;11.25;;;;;;;;;;5055053;28;20525;-44
2022/01/31 04:00:36;;;;;;;21.25;10.88;;;;;;;;;;5054517;28;20094;-43
2022/01/31 04:03:02;;;;;;;14.85;8.45;;;;;;;;;;5053056;28;20023;-44
2022/01/31 04:05:27;;;;;;;8.00;4.68;;;;;;;;;;5055871;28;20693;-42
2022/01/31 04:07:52;;;;;;;10.90;8.20;;;;;;;;;;5056079;28;20043;-44
2022/01/31 04:10:18;;;;;;;21.25;9.55;;;;;;;;;;5054627;28;20414;-46
2022/01/31 04:12:44;;;;;;;12.60;8.07;;;;;;;;;;5056764;28;20086;-43
2022/01/31 04:15:10;;;;;;;13.60;5.78;;;;;;;;;;5059330;28;20032;-46
2022/01/31 04:17:37;;;;;;;9.43;5.70;;;;;;;;;;5053678;28;20492;-42
2022/01/31 04:20:02;;;;;;;8.80;5.03;;;;;;;;;;5054921;28;20016;-45
2022/01/31 04:22:31;;;;;;;9.52;4.20;;;;;;;;;;5058461;28;20082;-44
2022/01/31 04:25:00;;;;;;;7.15;4.95;;;;;;;;;;5058238;28;20021;-47
2022/01/31 04:27:31;;;;;;;7.78;4.93;;;;;;;;;;5056143;28;20060;-49
2022/01/31 04:29:57;;;;;;;9.77;5.77;;;;;;;;;;5058760;28;20021;-45
2022/01/31 04:32:22;;;;;;;5.32;3.78;;;;;;;;;;5056991;28;20688;-44
2022/01/31 04:34:48;;;;;;;16.50;5.43;;;;;;;;;;5056108;28;20028;-44
2022/01/31 04:37:13;;;;;;;8.65;3.65;;;;;;;;;;5056546;28;20020;-49
2022/01/31 04:39:38;;;;;;;7.22;4.25;;;;;;;;;;5055498;28;20025;-42
2022/01/31 04:42:07;;;;;;;10.43;4.72;;;;;;;;;;5055094;28;20059;-46
2022/01/31 04:44:33;;;;;;;5.40;3.83;;;;;;;;;;5057151;28;20100;-43
2022/01/31 04:46:59;;;;;;;8.48;3.70;;;;;;;;;;5056663;28;20466;-47
2022/01/31 04:49:24;;;;;;;10.13;3.25;;;;;;;;;;5053018;28;20029;-46
2022/01/31 04:51:51;;;;;;;6.40;3.38;;;;;;;;;;5055989;28;20029;-46
2022/01/31 04:54:16;;;;;;;5.50;3.58;;;;;;;;;;5056139;28;20028;-47
2022/01/31 04:56:43;;;;;;;17.27;4.60;;;;;;;;;;5056653;28;20510;-45
2022/01/31 04:59:09;;;;;;;7.18;3.65;;;;;;;;;;5051636;28;20107;-46
2022/01/31 05:01:35;;;;;;;4.32;2.85;;;;;;;;;;5058722;28;20657;-43
2022/01/31 05:04:00;;;;;;;12.65;3.88;;;;;;;;;;5054595;28;20025;-47
2022/01/31 05:06:31;;;;;;;11.77;3.03;;;;;;;;;;5053778;28;20074;-46
2022/01/31 05:08:57;;;;;;;4.15;2.63;;;;;;;;;;5054125;28;20021;-45
2022/01/31 05:11:22;;;;;;;3.65;2.05;;;;;;;;;;5058271;28;20028;-44
2022/01/31 05:13:48;;;;;;;3.72;2.42;;;;;;;;;;5054361;28;20021;-42
2022/01/31 05:16:13;;;;;;;8.70;3.17;;;;;;;;;;5056144;28;20013;-47
2022/01/31 05:18:38;;;;;;;8.02;4.13;;;;;;;;;;5056297;28;20892;-44
2022/01/31 05:21:05;;;;;;;4.82;2.97;;;;;;;;;;5056705;28;20544;-47
2022/01/31 05:23:31;;;;;;;4.15;3.08;;;;;;;;;;5055529;28;20074;-45
2022/01/31 05:25:56;;;;;;;4.05;3.10;;;;;;;;;;5057029;28;20020;-43
2022/01/31 05:28:21;;;;;;;4.95;3.53;;;;;;;;;;5058541;28;20484;-43
2022/01/31 05:30:47;;;;;;;5.25;3.67;;;;;;;;;;5055135;28;20024;-44
2022/01/31 05:33:12;;;;;;;5.47;3.38;;;;;;;;;;5054862;28;20028;-45
2022/01/31 05:35:37;;;;;;;5.28;3.67;;;;;;;;;;5059876;28;20025;-46
2022/01/31 05:38:03;;;;;;;9.88;5.50;;;;;;;;;;5057385;28;20036;-44
2022/01/31 05:40:29;;;;;;;15.48;3.75;;;;;;;;;;5056755;28;20027;-47
2022/01/31 05:42:54;;;;;;;7.18;2.88;;;;;;;;;;5056118;28;20074;-46
2022/01/31 05:45:19;;;;;;;4.75;2.70;;;;;;;;;;5055148;28;20056;-48
2022/01/31 05:47:44;;;;;;;3.17;2.30;;;;;;;;;;5054970;28;20123;-48
2022/01/31 05:50:10;;;;;;;6.55;3.03;;;;;;;;;;5055716;28;20101;-44
2022/01/31 05:52:35;;;;;;;2.70;2.28;;;;;;;;;;5052500;28;20473;-44
2022/01/31 05:55:01;;;;;;;4.82;2.97;;;;;;;;;;5052381;28;20401;-45
2022/01/31 05:57:27;;;;;;;3.20;2.75;;;;;;;;;;5053860;28;20054;-47
2022/01/31 05:59:52;;;;;;;7.78;4.32;;;;;;;;;;5056735;28;20021;-43
2022/01/31 06:02:18;;;;;;;22.95;4.78;;;;;;;;;;5058088;28;20079;-45
2022/01/31 06:04:43;;;;;;;21.15;4.72;;;;;;;;;;5059218;28;20024;-44
2022/01/31 06:07:08;;;;;;;5.15;2.70;;;;;;;;;;5054581;28;20027;-45
2022/01/31 06:09:34;;;;;;;6.25;3.67;;;;;;;;;;5055190;28;20031;-48
2022/01/31 06:12:02;;;;;;;8.95;3.80;;;;;;;;;;5056187;28;20085;-45
2022/01/31 06:14:27;;;;;;;6.88;4.70;;;;;;;;;;5058549;28;20031;-42
2022/01/31 06:16:53;;;;;;;7.55;4.53;;;;;;;;;;5054853;28;20025;-43
2022/01/31 06:19:18;;;;;;;8.90;5.53;;;;;;;;;;5054382;28;20028;-44
2022/01/31 06:21:43;;;;;;;5.75;3.97;;;;;;;;;;5053347;28;20095;-48
2022/01/31 06:24:10;;;;;;;12.15;5.90;;;;;;;;;;5054473;28;20020;-43
2022/01/31 06:26:36;;;;;;;6.78;4.72;;;;;;;;;;5052981;28;20032;-49
2022/01/31 06:29:02;;;;;;;13.45;5.97;;;;;;;;;;5049853;28;20009;-47
2022/01/31 06:31:27;;;;;;;7.13;4.78;;;;;;;;;;5053386;28;20016;-49
2022/01/31 06:33:53;;;;;;;3.70;2.92;;;;;;;;;;5054039;28;20410;-48
2022/01/31 06:36:18;;;;;;;2.25;1.65;;;;;;;;;;5052661;28;20017;-47
2022/01/31 06:38:45;;;;;;;24.13;22.13;;;;;;;;;;5055963;28;20680;-49
2022/01/31 06:41:11;;;;;;;8.73;4.45;;;;;;;;;;5056131;28;20032;-45
2022/01/31 06:43:37;;;;;;;6.03;5.43;;;;;;;;;;5056089;28;20031;-49
2022/01/31 06:46:02;;;;;;;10.38;5.82;;;;;;;;;;5056384;28;20100;-46
2022/01/31 06:48:28;;;;;;;10.05;6.03;;;;;;;;;;5053497;28;20393;-49
2022/01/31 06:50:53;;;;;;;14.15;5.25;;;;;;;;;;5051588;28;20023;-48
2022/01/31 06:53:25;;;;;;;14.30;5.55;;;;;;;;;;5058667;28;20026;-49
2022/01/31 06:55:51;;;;;;;9.43;5.93;;;;;;;;;;5053981;28;20107;-49
2022/01/31 06:58:16;;;;;;;8.40;5.28;;;;;;;;;;5053418;28;20528;-49
2022/01/31 07:00:41;;;;;;;10.50;8.10;;;;;;;;;;5054042;28;20152;-49
2022/01/31 07:03:10;;;;;;;18.05;8.80;;;;;;;;;;5052645;28;20113;-48
2022/01/31 07:05:36;;;;;;;17.92;7.43;;;;;;;;;;5051226;28;20147;-47
2022/01/31 07:08:02;;;;;;;14.57;9.02;;;;;;;;;;5051563;28;20456;-44
2022/01/31 07:10:27;;;;;;;16.92;10.32;;;;;;;;;;5055656;28;20013;-46
2022/01/31 07:12:54;;;;;;;22.23;9.43;;;;;;;;;;5053635;28;20065;-48
2022/01/31 07:15:20;;;;;;;32.53;11.50;;;;;;;;;;5055202;28;20037;-49
2022/01/31 07:17:46;;;;;;;24.02;11.27;;;;;;;;;;5051875;28;20020;-50
2022/01/31 07:20:19;;;;;;;18.50;11.57;;;;;;;;;;5054934;28;20086;-48
2022/01/31 07:22:51;;;;;;;24.75;11.30;;;;;;;;;;5056108;28;20035;-50
2022/01/31 07:25:34;;;;;;;19.48;13.27;;;;;;;;;;5052155;28;20086;-49
2022/01/31 07:28:00;;;;;;;25.17;12.98;;;;;;;;;;5053034;28;20032;-48
2022/01/31 07:30:25;;;;;;;16.05;10.10;;;;;;;;;;5054302;28;20456;-49
2022/01/31 07:32:54;;;;;;;20.90;12.48;;;;;;;;;;5055509;28;20510;-51
2022/01/31 07:35:20;;;;;;;18.45;11.75;;;;;;;;;;5052824;28;20029;-46
2022/01/31 07:37:45;;;;;;;19.23;11.85;;;;;;;;;;5054795;28;20029;-47
2022/01/31 07:40:11;;;;;;;41.47;22.05;;;;;;;;;;5051375;28;20032;-50
2022/01/31 07:42:36;;;;;;;41.85;27.88;;;;;;;;;;5053328;28;20025;-50
2022/01/31 07:45:02;;;;;;;22.23;13.05;;;;;;;;;;5053447;28;20394;-45
2022/01/31 07:47:27;;;;;;;17.05;13.02;;;;;;;;;;5052367;28;20020;-45
2022/01/31 07:49:53;;;;;;;15.88;10.27;;;;;;;;;;5056684;28;20173;-49
2022/01/31 07:52:18;;;;;;;27.27;17.00;;;;;;;;;;5055550;28;20036;-50
2022/01/31 07:54:44;;;;;;;27.67;18.05;;;;;;;;;;5060511;28;20033;-45
2022/01/31 07:57:09;;;;;;;22.45;14.80;;;;;;;;;;5058140;28;20473;-47
2022/01/31 07:59:35;;;;;;;29.25;17.65;;;;;;;;;;5054078;28;20377;-49
2022/01/31 08:02:00;;;;;;;25.08;15.40;;;;;;;;;;5053198;28;20100;-47
2022/01/31 08:04:25;;;;;;;27.52;18.85;;;;;;;;;;5055518;28;20021;-48
2022/01/31 08:06:51;;;;;;;44.40;25.33;;;;;;;;;;5056377;28;20028;-46
2022/01/31 08:09:16;;;;;;;30.73;23.88;;;;;;;;;;5059952;28;20087;-51
2022/01/31 08:11:42;;;;;;;23.77;20.42;;;;;;;;;;5058379;28;20432;-45
2022/01/31 08:14:09;;;;;;;30.83;23.83;;;;;;;;;;5056888;28;20060;-49
2022/01/31 08:16:35;;;;;;;51.30;25.70;;;;;;;;;;5054126;28;20390;-51
2022/01/31 08:19:00;;;;;;;43.42;26.30;;;;;;;;;;5058129;28;20020;-50
2022/01/31 08:21:26;;;;;;;40.88;24.42;;;;;;;;;;5058275;28;20017;-50
2022/01/31 08:23:52;;;;;;;31.92;23.83;;;;;;;;;;5060018;28;20020;-47
2022/01/31 08:26:17;;;;;;;33.17;23.25;;;;;;;;;;5060593;28;20393;-44
2022/01/31 08:28:59;;;;;;;39.40;23.85;;;;;;;;;;5055647;28;20021;-47
2022/01/31 08:31:35;;;;;;;;;;;;;;;;;;5057556;28;20021;-47
2022/01/31 08:34:06;;;;;;;28.58;20.52;;;;;;;;;;5055087;28;19953;-49
2022/01/31 08:36:34;;;;;;;36.40;25.55;;;;;;;;;;5053686;28;20028;-51
2022/01/31 08:39:00;;;;;;;40.30;22.33;;;;;;;;;;5053132;28;20057;-45
2022/01/31 08:41:26;;;;;;;22.38;16.83;;;;;;;;;;5055743;28;20032;-51
2022/01/31 08:43:51;;;;;;;24.13;17.33;;;;;;;;;;5052225;28;20025;-47
2022/01/31 08:46:16;;;;;;;32.58;18.73;;;;;;;;;;5057119;28;20020;-48
2022/01/31 08:48:42;;;;;;;36.17;18.88;;;;;;;;;;5051026;28;20032;-49
2022/01/31 08:51:09;;;;;;;29.30;21.40;;;;;;;;;;5056953;28;20071;-46
2022/01/31 08:53:35;;;;;;;23.65;19.23;;;;;;;;;;5055242;28;20581;-49
2022/01/31 08:56:11;;;;;;;37.35;20.67;;;;;;;;;;5051625;28;20040;-49
2022/01/31 08:58:42;;;;;;;32.78;21.08;;;;;;;;;;5054880;28;20047;-46
2022/01/31 09:01:08;;;;;;;19.38;16.75;;;;;;;;;;5057615;28;20082;-50
2022/01/31 09:06:00;;;;;;;39.00;21.70;;;;;;;;;;5056521;28;20020;-49
2022/01/31 09:08:25;;;;;;;24.20;19.27;;;;;;;;;;5052251;28;20501;-47
2022/01/31 09:10:50;;;;;;;27.00;17.15;;;;;;;;;;5051518;28;20057;-45
2022/01/31 09:13:17;;;;;;;31.50;23.15;;;;;;;;;;5054052;28;20052;-47
2022/01/31 09:15:43;;;;;;;25.77;20.42;;;;;;;;;;5053789;28;20029;-53
2022/01/31 09:18:08;;;;;;;43.72;31.95;;;;;;;;;;5055510;28;20032;-49
2022/01/31 09:20:34;;;;;;;23.63;21.13;;;;;;;;;;5056108;28;20040;-53
2022/01/31 09:23:02;;;;;;;36.33;25.55;;;;;;;;;;5057565;28;20123;-49
2022/01/31 09:25:45;;;;;;;32.20;26.08;;;;;;;;;;5054748;28;20017;-50
2022/01/31 09:28:10;;;;;;;38.55;29.70;;;;;;;;;;5058446;28;20047;-48
2022/01/31 09:30:36;;;;;;;38.13;20.27;;;;;;;;;;5059662;28;20032;-47
2022/01/31 09:33:01;;;;;;;35.75;20.55;;;;;;;;;;5057195;28;20029;-46
2022/01/31 09:35:26;;;;;;;20.38;15.07;;;;;;;;;;5052923;28;20021;-48
2022/01/31 09:37:52;;;;;;;20.58;15.77;;;;;;;;;;5056861;28;20036;-51
2022/01/31 09:40:20;;;;;;;17.52;15.68;;;;;;;;;;5053727;28;20016;-43
2022/01/31 09:50:54;;;;;;;24.88;18.15;;;;;;;;;;5053701;28;20052;-37
2022/01/31 09:53:20;;;;;;;26.38;19.45;;;;;;;;;;5052700;28;20775;-37
2022/01/31 09:55:48;;;;;;;37.88;29.38;;;;;;;;;;5051507;28;20067;-36
2022/01/31 09:58:13;;;;;;;25.77;19.88;;;;;;;;;;5052086;28;20040;-37
2022/01/31 10:00:39;;;;;;;19.58;16.88;;;;;;;;;;5054293;28;20078;-37
2022/01/31 10:03:08;;;;;;;68.65;28.80;;;;;;;;;;5059502;28;20638;-37
2022/01/31 10:05:33;;;;;;;37.78;27.17;;;;;;;;;;5049577;28;20017;-36
2022/01/31 10:08:08;;;;;;;27.20;17.58;;;;;;;;;;5054855;28;20020;-38
2022/01/31 10:10:39;;;;;;;22.55;17.38;;;;;;;;;;5051704;28;20475;-37
2022/01/31 10:16:28;;;;;;;35.92;17.92;;;;;;;;;;5052534;28;20040;-37
2022/01/31 10:19:05;;;;;;;23.52;8.82;;;;;;;;;;5051812;28;20048;-37
2022/01/31 10:21:32;;;;;;;17.00;7.18;;;;;;;;;;5060841;28;20028;-37
2022/01/31 10:23:57;;;;;;;12.85;9.77;;;;;;;;;;5053084;28;20028;-37
2022/01/31 10:26:33;;;;;;;7.65;5.13;;;;;;;;;;5050395;28;20016;-38
2022/01/31 10:29:09;;;;;;;11.32;6.82;;;;;;;;;;5055073;28;20504;-40
2022/01/31 10:31:34;;;;;;;7.10;2.58;;;;;;;;;;5055779;28;20059;-40
2022/01/31 10:34:19;;;;;;;5.30;2.65;;;;;;;;;;5049562;28;20025;-38
2022/01/31 10:36:45;;;;;;;20.08;15.85;;;;;;;;;;5048531;28;20036;-44
2022/01/31 10:39:15;;;;;;;14.60;11.65;;;;;;;;;;5053183;28;20036;-40
2022/01/31 10:45:22;;;;;;;15.77;7.90;;;;;;;;;;5038942;28;20474;-40
2022/01/31 10:50:48;;;;;;;6.93;5.00;;;;;;;;;;5051811;28;20437;-42
2022/01/31 10:53:14;;;;;;;9.77;4.70;;;;;;;;;;5048863;28;20485;-41
2022/01/31 10:55:39;;;;;;;7.93;3.45;;;;;;;;;;5053642;28;20035;-41
2022/01/31 10:58:06;;;;;;;6.57;5.03;;;;;;;;;;5051134;28;20502;-39
2022/01/31 11:00:32;;;;;;;13.07;4.10;;;;;;;;;;5048734;28;20065;-40
2022/01/31 11:02:59;;;;;;;6.00;3.40;;;;;;;;;;5051269;28;20027;-39
2022/01/31 11:05:24;;;;;;;7.00;3.00;;;;;;;;;;5047836;28;20024;-42
2022/01/31 11:07:49;;;;;;;4.47;3.25;;;;;;;;;;5050123;28;20028;-41
2022/01/31 11:10:28;;;;;;;3.80;2.60;;;;;;;;;;5051481;28;20063;-43
2022/01/31 11:12:54;;;;;;;8.98;3.72;;;;;;;;;;5054666;28;20029;-40
2022/01/31 11:15:19;;;;;;;11.45;4.95;;;;;;;;;;5055813;28;20532;-42
2022/01/31 11:17:46;;;;;;;16.13;7.28;;;;;;;;;;5054241;28;20036;-41
2022/01/31 11:33:58;;;;;;;4.55;1.98;;;;;;;;;;4953109;28;20392;-42
2022/01/31 12:23:39;;;;;;;6.07;4.40;;;;;;;;;;5075317;27;20659;-43
2022/01/31 12:26:23;;;;;;;6.82;5.30;;;;;;;;;;5080326;28;20498;-43
2022/01/31 12:28:53;;;;;;;4.30;3.78;;;;;;;;;;5083233;28;20235;-44
2022/01/31 12:31:27;;;;;;;10.07;6.20;;;;;;;;;;5080553;28;20515;-41
2022/01/31 12:33:53;;;;;;;5.75;5.15;;;;;;;;;;5085680;28;20511;-47
2022/01/31 12:36:36;;;;;;;8.02;3.42;;;;;;;;;;5077451;28;20027;-41
2022/01/31 12:39:24;;;;;;;2.78;1.95;;;;;;;;;;5084281;28;20024;-39
2022/01/31 12:41:58;;;;;;;6.07;4.07;;;;;;;;;;5080546;28;20047;-41
2022/01/31 12:44:33;;;;;;;14.82;4.72;;;;;;;;;;5085335;28;20545;-42
2022/01/31 12:47:08;;;;;;;8.45;4.70;;;;;;;;;;5076630;28;20057;-42
2022/01/31 12:49:33;;;;;;;6.68;4.50;;;;;;;;;;5084658;28;20031;-40
2022/01/31 12:51:58;;;;;;;5.35;3.40;;;;;;;;;;5087302;28;20029;-40
2022/01/31 12:54:24;;;;;;;5.50;3.70;;;;;;;;;;5079625;28;20024;-40
2022/01/31 12:56:49;;;;;;;10.38;5.90;;;;;;;;;;5085123;28;20062;-40
2022/01/31 12:59:16;;;;;;;15.45;4.82;;;;;;;;;;5089088;28;20020;-42
2022/01/31 13:01:50;;;;;;;7.60;3.30;;;;;;;;;;5082133;28;20078;-42
2022/01/31 13:04:23;;;;;;;11.77;10.20;;;;;;;;;;5088467;28;20027;-41
2022/01/31 13:06:50;;;;;;;17.63;4.75;;;;;;;;;;5084714;28;20113;-40
2022/01/31 13:09:35;;;;;;;4.45;2.85;;;;;;;;;;5084173;28;20585;-42
2022/01/31 13:12:05;;;;;;;10.98;4.22;;;;;;;;;;5075790;28;20341;-43
2022/01/31 13:14:32;;;;;;;6.95;3.40;;;;;;;;;;5072408;28;20033;-42
2022/01/31 13:17:18;;;;;;;5.47;3.30;;;;;;;;;;5076412;28;20026;-41
2022/01/31 13:19:46;;;;;;;8.40;2.92;;;;;;;;;;5079840;28;20050;-43
2022/01/31 13:22:13;;;;;;;9.80;6.35;;;;;;;;;;5080939;28;20091;-41
2022/01/31 13:24:40;;;;;;;6.53;4.63;;;;;;;;;;5064592;28;20031;-42
2022/01/31 13:27:07;;;;;;;9.98;4.00;;;;;;;;;;5060789;28;20028;-39
2022/01/31 13:29:38;;;;;;;4.20;3.20;;;;;;;;;;5071356;28;20032;-41
2022/01/31 13:32:18;;;;;;;13.38;5.00;;;;;;;;;;5069240;28;20077;-40
2022/01/31 13:34:44;;;;;;;2.47;2.28;;;;;;;;;;5024808;28;20041;-40
2022/01/31 13:37:28;;;;;;;6.07;3.72;;;;;;;;;;5051197;28;20028;-42
2022/01/31 13:39:54;;;;;;;10.82;3.55;;;;;;;;;;5041397;28;20102;-45
2022/01/31 13:42:26;;;;;;;48.08;37.03;;;;;;;;;;5051732;28;20029;-42
2022/01/31 13:44:54;;;;;;;24.17;12.98;;;;;;;;;;5049738;28;20029;-40
2022/01/31 13:47:34;;;;;;;14.63;13.13;;;;;;;;;;5052170;28;20112;-41
2022/01/31 13:50:02;;;;;;;12.38;8.60;;;;;;;;;;5049516;28;20048;-38
2022/01/31 13:52:32;;;;;;;9.70;6.63;;;;;;;;;;5043554;28;20055;-38
2022/01/31 13:54:58;;;;;;;13.82;4.68;;;;;;;;;;5048013;28;20024;-39
2022/01/31 13:57:23;;;;;;;6.82;3.97;;;;;;;;;;5047491;28;20033;-38
2022/01/31 13:59:49;;;;;;;10.57;4.72;;;;;;;;;;5051708;28;20021;-38
2022/01/31 14:02:14;;;;;;;10.80;4.55;;;;;;;;;;5050990;28;20030;-37
2022/01/31 14:04:41;;;;;;;8.73;3.67;;;;;;;;;;5046075;28;20437;-37
2022/01/31 14:07:26;;;;;;;4.40;3.10;;;;;;;;;;5048069;28;20067;-41
2022/01/31 14:09:53;;;;;;;8.73;4.55;;;;;;;;;;5046666;28;20029;-38
2022/01/31 14:12:18;;;;;;;14.02;4.05;;;;;;;;;;5046213;28;20653;-43
2022/01/31 14:14:44;;;;;;;11.73;4.68;;;;;;;;;;5044471;28;20058;-43
2022/01/31 14:17:09;;;;;;;10.48;4.40;;;;;;;;;;5050012;28;20074;-37
2022/01/31 14:19:39;;;;;;;11.20;4.60;;;;;;;;;;5054046;28;20380;-39
2022/01/31 14:22:06;;;;;;;10.10;4.50;;;;;;;;;;5051092;28;20091;-43
2022/01/31 14:24:33;;;;;;;6.85;3.03;;;;;;;;;;5048796;28;20153;-37
2022/01/31 14:27:04;;;;;;;6.78;3.60;;;;;;;;;;5047745;28;20467;-41
2022/01/31 14:29:30;;;;;;;8.80;4.25;;;;;;;;;;5046179;28;20171;-36
2022/01/31 14:31:56;;;;;;;12.68;4.20;;;;;;;;;;5050718;28;20029;-35
2022/01/31 14:34:23;;;;;;;5.10;3.38;;;;;;;;;;5049214;28;20016;-38
2022/01/31 14:37:08;;;;;;;5.88;2.95;;;;;;;;;;5041059;28;20019;-37
2022/01/31 14:39:43;;;;;;;5.35;3.97;;;;;;;;;;5047172;28;20086;-37
2022/01/31 14:47:42;;;;;;;8.38;3.42;;;;;;;;;;5044730;28;20876;-37
2022/01/31 14:50:09;;;;;;;3.33;2.97;;;;;;;;;;5045373;28;20029;-37
2022/01/31 14:52:34;;;;;;;5.65;3.83;;;;;;;;;;5049111;28;20516;-37
2022/01/31 14:55:06;;;;;;;5.00;3.20;;;;;;;;;;5053528;28;20021;-37
2022/01/31 14:57:32;;;;;;;14.65;8.32;;;;;;;;;;5038464;28;20025;-40
2022/01/31 14:59:57;;;;;;;13.07;7.82;;;;;;;;;;5049297;28;20545;-37
2022/01/31 15:02:23;;;;;;;46.95;7.88;;;;;;;;;;5048063;28;20037;-39
2022/01/31 15:04:49;;;;;;;10.57;4.10;;;;;;;;;;5047192;28;20611;-38
2022/01/31 15:07:15;;;;;;;5.95;3.00;;;;;;;;;;5045891;28;20025;-37
2022/01/31 15:09:41;;;;;;;8.18;5.60;;;;;;;;;;5047775;28;20368;-37
2022/01/31 15:12:06;;;;;;;9.80;5.70;;;;;;;;;;5047139;28;20489;-37
2022/01/31 15:14:31;;;;;;;6.45;5.03;;;;;;;;;;5045718;28;20027;-38
2022/01/31 15:16:57;;;;;;;12.38;8.77;;;;;;;;;;5046975;28;20016;-37
2022/01/31 15:19:22;;;;;;;12.40;8.23;;;;;;;;;;5044112;28;20044;-37
2022/01/31 15:21:48;;;;;;;11.65;9.90;;;;;;;;;;5043868;28;20413;-36
2022/01/31 15:24:15;;;;;;;10.10;8.90;;;;;;;;;;5044291;28;20029;-38
2022/01/31 15:26:41;;;;;;;16.65;8.75;;;;;;;;;;5049117;28;20076;-38
2022/01/31 15:29:06;;;;;;;18.48;13.73;;;;;;;;;;5050173;28;20511;-38
2022/01/31 15:31:31;;;;;;;12.05;10.52;;;;;;;;;;5041150;28;20597;-39
2022/01/31 15:33:57;;;;;;;11.07;9.43;;;;;;;;;;5029522;28;20766;-37
2022/01/31 15:36:24;;;;;;;12.25;8.43;;;;;;;;;;5042733;28;20625;-37
2022/01/31 15:38:51;;;;;;;13.10;9.18;;;;;;;;;;5045775;28;20033;-37
2022/01/31 15:41:17;;;;;;;12.45;8.18;;;;;;;;;;5046782;28;20039;-36
2022/01/31 15:43:43;;;;;;;12.52;7.68;;;;;;;;;;5045885;28;20024;-37
2022/01/31 15:46:09;;;;;;;12.40;7.53;;;;;;;;;;5051620;28;20035;-37
2022/01/31 15:48:34;;;;;;;23.00;8.50;;;;;;;;;;5051543;28;20523;-36
2022/01/31 15:51:00;;;;;;;15.05;12.07;;;;;;;;;;5052090;28;20067;-37
2022/01/31 15:53:25;;;;;;;17.13;11.93;;;;;;;;;;5047685;28;20047;-37
2022/01/31 15:55:51;;;;;;;10.90;9.80;;;;;;;;;;5052393;28;20684;-36
2022/01/31 15:58:16;;;;;;;8.57;7.40;;;;;;;;;;5049749;28;20447;-37
2022/01/31 16:00:43;;;;;;;10.73;7.57;;;;;;;;;;5046466;28;20045;-36